Time;durP1;ratioP1;P1;durP2;ratioP2;P2;SDS_P1;SDS_P2;PMS_P1;PMS_P2;Temp;Humidity;BMP_temperature;BMP_pressure;BME280_temperature;BME280_humidity;BME280_pressure;Samples;Min_cycle;Max_cycle;Signal;HPM_P1;HPM_P2
2022/01/07 00:01:11;;;;;;;27.50;7.17;;;;;;;-4.56;98.14;100245.56;5115022;22;22372;-80
2022/01/07 00:03:38;;;;;;;22.87;7.03;;;;;;;-4.55;98.36;100251.59;5112288;22;20208;-75
2022/01/07 00:06:05;;;;;;;25.07;7.20;;;;;;;-4.59;98.65;100250.00;5121698;22;20215;-76
2022/01/07 00:08:32;;;;;;;21.63;6.53;;;;;;;-4.64;98.91;100250.16;5122509;22;20264;-75
2022/01/07 00:10:59;;;;;;;18.23;6.33;;;;;;;-4.64;99.13;100246.72;5120866;22;20213;-79
2022/01/07 00:13:25;;;;;;;18.70;6.07;;;;;;;-4.58;99.79;100257.75;5141636;22;20202;-76
2022/01/07 00:15:54;;;;;;;15.10;5.90;;;;;;;-4.63;99.45;100256.25;5117704;22;20210;-77
2022/01/07 00:18:21;;;;;;;16.20;5.87;;;;;;;-4.56;99.93;100249.94;5122628;22;21108;-81
2022/01/07 00:20:48;;;;;;;22.37;6.47;;;;;;;-4.58;99.67;100254.31;5125993;22;21708;-77
2022/01/07 00:23:14;;;;;;;22.00;6.20;;;;;;;-4.61;100.00;100259.59;5114289;22;20296;-76
2022/01/07 00:25:41;;;;;;;30.73;7.50;;;;;;;-4.59;99.96;100260.41;5119132;22;20202;-77
2022/01/07 00:28:07;;;;;;;19.67;6.23;;;;;;;-4.65;100.00;100260.63;5105454;22;21827;-75
2022/01/07 00:30:36;;;;;;;19.77;6.40;;;;;;;-4.64;100.00;100265.75;5128428;22;24622;-79
2022/01/07 00:33:03;;;;;;;23.30;6.53;;;;;;;-4.65;100.00;100266.66;5122762;22;20313;-77
2022/01/07 00:35:30;;;;;;;20.20;6.97;;;;;;;-4.65;100.00;100268.41;5111671;22;22243;-77
2022/01/07 00:37:57;;;;;;;22.47;6.60;;;;;;;-4.69;100.00;100273.69;5123017;22;21421;-79
2022/01/07 00:40:24;;;;;;;22.10;6.63;;;;;;;-4.69;100.00;100281.47;5152846;22;20248;-77
2022/01/07 00:42:51;;;;;;;25.10;7.00;;;;;;;-4.67;100.00;100281.44;5133058;22;20206;-78
2022/01/07 00:45:19;;;;;;;21.17;6.50;;;;;;;-4.64;100.00;100283.06;5106329;22;21102;-81
2022/01/07 00:47:46;;;;;;;26.07;6.60;;;;;;;-4.67;100.00;100278.84;5116147;22;21151;-77
2022/01/07 00:50:14;;;;;;;19.33;6.50;;;;;;;-4.67;100.00;100278.84;5096489;22;20202;-77
2022/01/07 00:52:41;;;;;;;22.87;5.83;;;;;;;-4.65;100.00;100287.44;5115767;22;20272;-78
2022/01/07 00:55:09;;;;;;;18.33;5.97;;;;;;;-4.60;100.00;100280.31;5117747;22;21581;-76
2022/01/07 00:57:35;;;;;;;16.57;4.70;;;;;;;-4.56;100.00;100281.09;5118875;22;20470;-77
2022/01/07 01:00:08;;;;;;;15.57;5.97;;;;;;;-4.60;100.00;100288.13;5138224;22;20244;-78
2022/01/07 01:02:35;;;;;;;25.33;6.30;;;;;;;-4.59;100.00;100291.56;5114999;22;20263;-80
2022/01/07 01:05:04;;;;;;;16.03;5.53;;;;;;;-4.60;100.00;100295.06;5110694;22;20212;-80
2022/01/07 01:07:30;;;;;;;17.00;6.10;;;;;;;-4.56;100.00;100288.88;5125817;22;20205;-77
2022/01/07 01:09:57;;;;;;;17.73;5.50;;;;;;;-4.55;100.00;100298.34;5103180;22;25510;-78
2022/01/07 01:12:23;;;;;;;20.13;5.93;;;;;;;-4.56;100.00;100289.72;5115945;22;20805;-77
2022/01/07 01:14:50;;;;;;;19.40;5.60;;;;;;;-4.54;100.00;100280.13;5148236;22;21513;-78
2022/01/07 01:17:17;;;;;;;20.20;5.53;;;;;;;-4.63;100.00;100277.84;5100591;22;20213;-80
2022/01/07 01:19:43;;;;;;;16.53;5.50;;;;;;;-4.66;100.00;100280.53;5132374;22;20863;-79
2022/01/07 01:22:10;;;;;;;18.47;6.30;;;;;;;-4.65;100.00;100284.00;5126498;22;20209;-76
2022/01/07 01:24:37;;;;;;;19.67;6.60;;;;;;;-4.64;100.00;100283.06;5114753;22;20205;-79
2022/01/07 01:27:04;;;;;;;19.73;6.47;;;;;;;-4.63;100.00;100277.00;5101955;22;20209;-76
2022/01/07 01:29:32;;;;;;;21.23;6.40;;;;;;;-4.72;100.00;100279.00;5125820;22;22248;-76
2022/01/07 01:31:58;;;;;;;20.20;6.57;;;;;;;-4.75;100.00;100279.13;5110527;22;20221;-77
2022/01/07 01:34:25;;;;;;;20.83;7.40;;;;;;;-4.74;100.00;100283.38;5134472;22;20337;-77
2022/01/07 01:36:51;;;;;;;22.33;7.60;;;;;;;-4.77;100.00;100278.31;5110260;22;20201;-76
2022/01/07 01:39:18;;;;;;;22.87;7.33;;;;;;;-4.77;100.00;100277.47;5118720;22;20212;-78
2022/01/07 01:41:44;;;;;;;17.43;6.53;;;;;;;-4.80;100.00;100275.81;5111903;22;21607;-77
2022/01/07 01:44:11;;;;;;;24.53;6.93;;;;;;;-4.76;100.00;100284.34;5127964;22;21643;-77
2022/01/07 01:46:37;;;;;;;23.03;6.53;;;;;;;-4.71;100.00;100288.47;5118655;22;20202;-76
2022/01/07 01:49:05;;;;;;;24.93;7.20;;;;;;;-4.77;100.00;100286.09;5120179;22;21204;-75
2022/01/07 01:51:34;;;;;;;21.13;6.93;;;;;;;-4.75;100.00;100292.09;5114111;22;20210;-80
2022/01/07 01:54:02;;;;;;;23.97;7.30;;;;;;;-4.76;100.00;100295.56;5101958;22;20202;-79
2022/01/07 01:56:28;;;;;;;23.50;7.30;;;;;;;-4.76;100.00;100294.72;5104440;22;20217;-77
2022/01/07 01:58:55;;;;;;;18.33;6.83;;;;;;;-4.79;100.00;100295.69;5122094;22;20202;-77
2022/01/07 02:01:21;;;;;;;18.73;6.37;;;;;;;-4.71;100.00;100309.22;5129139;22;20549;-78
2022/01/07 02:03:48;;;;;;;18.43;6.17;;;;;;;-4.74;100.00;100303.31;5134946;22;20198;-79
2022/01/07 02:06:15;;;;;;;17.13;7.47;;;;;;;-4.80;100.00;100309.56;5109225;22;20346;-78
2022/01/07 02:08:42;;;;;;;21.30;7.20;;;;;;;-4.88;100.00;100308.97;5117716;22;22249;-80
2022/01/07 02:11:09;;;;;;;25.80;7.57;;;;;;;-4.83;100.00;100308.81;5093924;22;20198;-77
2022/01/07 02:13:35;;;;;;;18.87;6.30;;;;;;;-4.82;100.00;100311.38;5078938;22;20912;-78
2022/01/07 02:16:02;;;;;;;25.67;7.17;;;;;;;-4.84;100.00;100313.16;5086723;22;20313;-80
2022/01/07 02:18:28;;;;;;;21.33;6.67;;;;;;;-4.81;100.00;100318.25;5092477;22;20210;-79
2022/01/07 02:20:55;;;;;;;17.47;6.40;;;;;;;-4.74;100.00;100314.53;5117389;22;20206;-78
2022/01/07 02:23:21;;;;;;;17.70;6.60;;;;;;;-4.78;100.00;100315.53;5112920;22;20228;-79
2022/01/07 02:25:49;;;;;;;22.60;6.50;;;;;;;-4.74;100.00;100314.53;5119413;22;23507;-79
2022/01/07 02:28:15;;;;;;;17.53;6.63;;;;;;;-4.77;100.00;100317.25;5111430;22;21067;-79
2022/01/07 02:30:42;;;;;;;16.87;6.17;;;;;;;-4.76;100.00;100311.13;5133996;22;20202;-78
2022/01/07 02:33:08;;;;;;;16.93;5.93;;;;;;;-4.74;100.00;100324.91;5111377;22;20328;-79
2022/01/07 02:35:35;;;;;;;19.17;6.17;;;;;;;-4.66;100.00;100322.06;5112573;22;20601;-81
2022/01/07 02:38:02;;;;;;;16.13;5.93;;;;;;;-4.67;100.00;100318.63;5119041;22;20210;-78
2022/01/07 02:40:29;;;;;;;20.03;6.73;;;;;;;-4.71;100.00;100324.81;5110381;22;20202;-78
2022/01/07 02:42:56;;;;;;;17.10;5.63;;;;;;;-4.75;100.00;100325.84;5111977;22;21680;-77
2022/01/07 02:45:22;;;;;;;12.17;5.40;;;;;;;-4.77;100.00;100327.63;5113090;22;20264;-78
2022/01/07 02:47:51;;;;;;;20.40;5.97;;;;;;;-4.78;100.00;100328.50;5111453;22;21839;-78
2022/01/07 02:50:23;;;;;;;14.03;5.43;;;;;;;-4.83;100.00;100333.00;5145936;22;20202;-76
2022/01/07 02:52:50;;;;;;;16.13;5.50;;;;;;;-4.86;100.00;100334.88;5135490;22;21405;-79
2022/01/07 02:55:17;;;;;;;19.90;5.90;;;;;;;-4.78;100.00;100322.47;5114517;22;20203;-78
2022/01/07 02:57:44;;;;;;;16.60;5.10;;;;;;;-4.70;100.00;100331.72;5116222;22;20209;-77
2022/01/07 03:00:11;;;;;;;12.80;4.63;;;;;;;-4.57;100.00;100332.13;5111182;22;20202;-78
2022/01/07 03:02:38;;;;;;;16.07;5.37;;;;;;;-4.68;100.00;100340.31;5123209;22;20205;-78
2022/01/07 03:05:05;;;;;;;15.83;5.47;;;;;;;-4.76;100.00;100333.66;5117164;22;22904;-76
2022/01/07 03:07:33;;;;;;;21.87;5.70;;;;;;;-4.83;100.00;100334.75;5117021;22;20258;-79
2022/01/07 03:10:00;;;;;;;16.47;5.60;;;;;;;-4.91;100.00;100338.47;5113620;22;20202;-76
2022/01/07 03:12:27;;;;;;;19.13;5.40;;;;;;;-4.99;100.00;100334.41;5111117;22;20664;-77
2022/01/07 03:14:53;;;;;;;19.20;5.97;;;;;;;-5.04;100.00;100334.56;5113681;22;20312;-77
2022/01/07 03:17:20;;;;;;;16.80;5.50;;;;;;;-5.03;100.00;100343.19;5112834;22;20213;-80
2022/01/07 03:19:46;;;;;;;14.13;4.70;;;;;;;-5.01;100.00;100337.06;5114539;22;20202;-77
2022/01/07 03:22:13;;;;;;;14.03;4.77;;;;;;;-5.01;100.00;100341.38;5116227;22;21539;-79
2022/01/07 03:24:40;;;;;;;16.87;5.27;;;;;;;-5.01;100.00;100344.84;5118606;22;20853;-76
2022/01/07 03:27:07;;;;;;;16.80;5.40;;;;;;;-5.04;100.00;100344.09;5101269;22;20205;-80
2022/01/07 03:29:34;;;;;;;18.80;5.63;;;;;;;-5.02;100.00;100344.88;5087732;22;23138;-79
2022/01/07 03:32:01;;;;;;;14.13;4.90;;;;;;;-5.06;100.00;100348.47;5116018;22;20209;-79
2022/01/07 03:34:28;;;;;;;15.20;5.57;;;;;;;-5.10;99.85;100343.38;5141950;22;21590;-77
2022/01/07 03:36:54;;;;;;;18.47;5.63;;;;;;;-5.14;100.00;100351.31;5130770;22;21703;-76
2022/01/07 03:39:21;;;;;;;15.67;5.30;;;;;;;-5.05;100.00;100347.59;5101030;22;20646;-79
2022/01/07 03:41:48;;;;;;;15.87;5.60;;;;;;;-5.06;99.71;100348.47;5113984;22;20367;-78
2022/01/07 03:44:15;;;;;;;16.23;4.87;;;;;;;-5.11;99.70;100346.88;5115318;22;20611;-76
2022/01/07 03:46:41;;;;;;;18.10;5.13;;;;;;;-5.16;99.86;100353.94;5113480;22;21062;-78
2022/01/07 03:49:08;;;;;;;14.57;5.97;;;;;;;-5.15;99.83;100358.25;5128091;22;20232;-76
2022/01/07 03:51:34;;;;;;;16.03;6.67;;;;;;;-5.14;99.57;100354.75;5117705;22;20297;-80
2022/01/07 03:54:01;;;;;;;17.50;6.20;;;;;;;-5.21;99.71;100355.00;5134494;22;20461;-78
2022/01/07 03:56:27;;;;;;;16.80;5.93;;;;;;;-5.21;100.00;100357.59;5125643;22;20697;-76
2022/01/07 03:58:54;;;;;;;18.53;6.40;;;;;;;-5.10;99.67;100356.34;5131722;22;20206;-77
2022/01/07 04:01:21;;;;;;;17.90;5.17;;;;;;;-5.13;99.54;100353.88;5119988;22;20202;-76
2022/01/07 04:03:47;;;;;;;19.50;6.40;;;;;;;-5.10;99.75;100353.75;5115098;22;20253;-78
2022/01/07 04:06:18;;;;;;;17.30;6.30;;;;;;;-5.13;99.40;100351.28;5115339;22;20202;-80
2022/01/07 04:08:44;;;;;;;17.80;6.70;;;;;;;-5.14;99.97;100354.75;5097956;22;20198;-77
2022/01/07 04:11:11;;;;;;;18.70;6.37;;;;;;;-5.22;99.55;100353.28;5116585;22;21075;-79
2022/01/07 04:13:37;;;;;;;20.90;6.30;;;;;;;-5.20;99.67;100356.69;5116735;22;20243;-77
2022/01/07 04:16:04;;;;;;;20.43;6.97;;;;;;;-5.26;99.76;100352.53;5136893;22;20202;-78
2022/01/07 04:18:30;;;;;;;19.10;6.37;;;;;;;-5.24;100.00;100360.28;5112942;22;20202;-77
2022/01/07 04:20:57;;;;;;;16.73;6.67;;;;;;;-5.21;99.72;100355.84;5117833;22;20433;-76
2022/01/07 04:23:23;;;;;;;18.03;6.03;;;;;;;-5.24;100.00;100350.75;5151580;22;24956;-77
2022/01/07 04:25:50;;;;;;;20.67;7.20;;;;;;;-5.01;99.64;100352.63;5108133;22;20406;-75
2022/01/07 04:28:17;;;;;;;18.70;6.53;;;;;;;-4.83;98.55;100351.19;5119653;22;20241;-75
2022/01/07 04:30:44;;;;;;;22.30;6.60;;;;;;;-4.79;97.93;100337.22;5114255;22;20212;-77
2022/01/07 04:33:14;;;;;;;17.93;6.90;;;;;;;-4.72;97.11;100337.88;5093029;22;20711;-75
2022/01/07 04:35:42;;;;;;;21.47;7.03;;;;;;;-4.72;96.54;100335.25;5112602;22;20788;-76
2022/01/07 04:38:09;;;;;;;21.13;6.53;;;;;;;-4.76;96.26;100333.66;5114164;22;20205;-76
2022/01/07 04:40:36;;;;;;;21.30;6.73;;;;;;;-4.76;96.20;100342.28;5104165;22;20949;-79
2022/01/07 04:43:04;;;;;;;19.40;7.23;;;;;;;-4.73;95.77;100343.94;5112896;22;20606;-76
2022/01/07 04:45:30;;;;;;;20.23;6.63;;;;;;;-4.63;95.48;100340.16;5083881;22;20208;-75
2022/01/07 04:47:57;;;;;;;19.90;6.30;;;;;;;-4.72;95.36;100333.50;5113297;22;22686;-75
2022/01/07 04:50:24;;;;;;;19.43;7.60;;;;;;;-4.73;94.94;100329.22;5099580;22;20674;-76
2022/01/07 04:52:50;;;;;;;20.30;6.73;;;;;;;-4.76;94.91;100318.94;5119427;22;20221;-75
2022/01/07 04:55:23;;;;;;;19.53;6.90;;;;;;;-4.71;94.64;100322.22;5109877;22;20627;-76
2022/01/07 04:57:50;;;;;;;19.37;7.00;;;;;;;-4.69;94.36;100323.00;5099992;22;21154;-77
2022/01/07 05:00:19;;;;;;;18.83;6.77;;;;;;;-4.69;94.37;100323.00;5103933;22;20643;-77
2022/01/07 05:02:46;;;;;;;16.80;5.50;;;;;;;-4.65;94.01;100328.97;5111229;22;20380;-75
2022/01/07 05:05:13;;;;;;;17.03;6.00;;;;;;;-4.69;93.23;100333.41;5110721;22;23391;-75
2022/01/07 05:07:40;;;;;;;21.00;6.63;;;;;;;-4.77;94.05;100330.22;5130478;22;20198;-76
2022/01/07 05:10:09;;;;;;;17.97;6.13;;;;;;;-4.74;93.72;100326.69;5117793;22;20198;-77
2022/01/07 05:12:36;;;;;;;22.40;6.80;;;;;;;-4.76;93.93;100331.91;5113308;22;20213;-76
2022/01/07 05:15:05;;;;;;;22.87;6.77;;;;;;;-4.71;93.54;100318.78;5111485;22;22120;-75
2022/01/07 05:17:33;;;;;;;21.83;6.50;;;;;;;-4.59;92.95;100331.38;5138383;22;20202;-76
2022/01/07 05:20:00;;;;;;;19.57;6.80;;;;;;;-4.63;92.75;100321.13;5134057;22;20206;-75
2022/01/07 05:22:28;;;;;;;23.47;6.90;;;;;;;-4.61;92.98;100329.69;5138235;22;21742;-76
2022/01/07 05:24:54;;;;;;;23.27;6.63;;;;;;;-4.58;92.62;100314.03;5159318;22;20202;-76
2022/01/07 05:27:21;;;;;;;23.00;6.93;;;;;;;-4.57;92.75;100318.31;5126168;22;20229;-77
2022/01/07 05:29:47;;;;;;;17.43;6.17;;;;;;;-4.54;92.53;100313.88;5097092;22;20244;-75
2022/01/07 05:32:14;;;;;;;17.67;6.17;;;;;;;-4.67;91.67;100305.66;5124947;22;20202;-76
2022/01/07 05:34:41;;;;;;;18.07;6.13;;;;;;;-4.64;91.90;100301.25;5091575;22;20988;-76
2022/01/07 05:37:10;;;;;;;21.50;6.60;;;;;;;-4.63;92.27;100313.34;5117208;22;20216;-76
2022/01/07 05:39:36;;;;;;;21.00;6.97;;;;;;;-4.58;91.32;100306.25;5128838;22;21728;-77
2022/01/07 05:42:04;;;;;;;21.47;7.03;;;;;;;-4.55;91.32;100314.75;5131403;22;20201;-76
2022/01/07 05:44:31;;;;;;;24.07;8.70;;;;;;;-4.57;91.27;100313.13;5117972;22;21571;-75
2022/01/07 05:46:58;;;;;;;20.77;6.97;;;;;;;-4.63;90.89;100316.78;5117207;22;21554;-75
2022/01/07 05:49:24;;;;;;;20.40;5.83;;;;;;;-4.59;91.16;100313.19;5137712;22;20490;-76
2022/01/07 05:51:51;;;;;;;20.07;6.20;;;;;;;-4.59;91.45;100313.19;5113184;22;20260;-76
2022/01/07 05:54:17;;;;;;;18.43;7.10;;;;;;;-4.51;90.75;100318.13;5141748;22;20223;-76
2022/01/07 05:56:44;;;;;;;19.57;6.10;;;;;;;-4.47;89.57;100328.34;5113417;22;20258;-77
2022/01/07 05:59:10;;;;;;;17.57;6.33;;;;;;;-4.60;90.04;100324.47;5117756;22;22338;-75
2022/01/07 06:01:37;;;;;;;24.73;6.70;;;;;;;-4.57;89.59;100321.75;5089728;22;20521;-76
2022/01/07 06:04:04;;;;;;;23.43;7.53;;;;;;;-4.56;89.36;100335.59;5118690;22;20198;-74
2022/01/07 06:06:30;;;;;;;19.37;6.93;;;;;;;-4.55;89.31;100332.09;5126288;22;20198;-76
2022/01/07 06:08:57;;;;;;;25.97;7.70;;;;;;;-4.59;89.47;100331.38;5122848;22;21553;-75
2022/01/07 06:11:23;;;;;;;25.23;7.73;;;;;;;-4.52;89.03;100339.78;5106716;23;20248;-75
2022/01/07 06:13:50;;;;;;;28.00;8.40;;;;;;;-4.54;89.72;100344.16;5112610;22;20285;-74
2022/01/07 06:16:16;;;;;;;31.10;8.67;;;;;;;-4.59;89.47;100346.94;5121102;22;21916;-75
2022/01/07 06:18:55;;;;;;;27.17;8.27;;;;;;;-4.60;89.18;100337.44;5119988;22;20292;-78
2022/01/07 06:21:22;;;;;;;30.43;9.40;;;;;;;-4.55;88.95;100342.47;5122034;22;22266;-75
2022/01/07 06:23:48;;;;;;;22.90;9.07;;;;;;;-4.60;89.33;100334.84;5115665;22;20201;-76
2022/01/07 06:26:15;;;;;;;26.97;8.27;;;;;;;-4.62;89.41;100338.41;5117566;22;20205;-76
2022/01/07 06:28:42;;;;;;;27.07;8.43;;;;;;;-4.62;89.46;100333.22;5102483;22;20228;-75
2022/01/07 06:31:09;;;;;;;21.83;7.80;;;;;;;-4.57;89.28;100337.34;5137815;22;20204;-75
2022/01/07 06:33:36;;;;;;;25.17;7.90;;;;;;;-4.55;88.90;100332.09;5113520;22;21713;-75
2022/01/07 06:36:02;;;;;;;23.03;7.50;;;;;;;-4.54;88.45;100337.25;5109028;22;21467;-77
2022/01/07 06:38:29;;;;;;;25.57;7.50;;;;;;;-4.50;88.50;100332.78;5097213;22;20209;-80
2022/01/07 06:40:55;;;;;;;19.67;7.53;;;;;;;-4.48;87.63;100326.63;5089510;22;23497;-78
2022/01/07 06:43:22;;;;;;;21.57;7.30;;;;;;;-4.49;87.99;100337.09;5114497;22;20205;-77
2022/01/07 06:45:51;;;;;;;21.50;7.20;;;;;;;-4.42;88.13;100335.13;5139534;22;21948;-76
2022/01/07 06:48:18;;;;;;;19.17;6.30;;;;;;;-4.39;87.61;100328.06;5205143;22;20197;-78
2022/01/07 06:50:45;;;;;;;19.00;6.57;;;;;;;-4.33;87.45;100330.47;5116640;22;20335;-75
2022/01/07 06:53:12;;;;;;;20.67;5.97;;;;;;;-4.27;88.00;100327.66;5121174;22;20922;-74
2022/01/07 06:55:55;;;;;;;19.83;6.53;;;;;;;-4.20;87.66;100335.22;5122514;22;20409;-74
2022/01/07 06:58:22;;;;;;;19.67;6.17;;;;;;;-4.14;88.07;100341.06;5132740;22;20206;-74
2022/01/07 07:00:49;;;;;;;16.80;6.00;;;;;;;-4.04;87.38;100334.63;5121776;22;20209;-77
2022/01/07 07:03:15;;;;;;;17.17;6.27;;;;;;;-3.94;87.04;100337.75;5118062;22;21666;-75
2022/01/07 07:05:42;;;;;;;18.73;6.37;;;;;;;-3.89;87.40;100343.59;5135163;22;20205;-75
2022/01/07 07:08:09;;;;;;;18.40;5.97;;;;;;;-3.90;87.43;100349.72;5118143;22;20209;-74
2022/01/07 07:10:35;;;;;;;15.30;6.10;;;;;;;-3.89;87.87;100345.38;5139400;22;20765;-74
2022/01/07 07:13:02;;;;;;;16.50;6.63;;;;;;;-3.80;87.37;100341.59;5133721;22;20217;-73
2022/01/07 07:15:29;;;;;;;23.43;7.43;;;;;;;-3.69;87.57;100349.84;5120387;22;20208;-77
2022/01/07 07:17:56;;;;;;;20.00;7.50;;;;;;;-3.63;86.63;100352.22;5117814;22;20234;-75
2022/01/07 07:20:22;;;;;;;25.07;7.07;;;;;;;-3.59;87.20;100343.38;5146123;22;20202;-78
2022/01/07 07:22:49;;;;;;;22.63;7.33;;;;;;;-3.48;86.27;100350.81;5118082;22;20202;-75
2022/01/07 07:25:15;;;;;;;21.83;7.10;;;;;;;-3.39;86.60;100350.47;5111032;22;20204;-74
2022/01/07 07:27:42;;;;;;;28.60;6.67;;;;;;;-3.22;86.00;100349.78;5106308;22;20247;-73
2022/01/07 07:30:10;;;;;;;18.70;6.93;;;;;;;-3.16;85.99;100362.59;5126310;22;20242;-75
2022/01/07 07:32:38;;;;;;;20.67;6.90;;;;;;;-3.09;85.80;100347.53;5095624;22;20209;-77
2022/01/07 07:37:41;;;;;;;25.60;7.17;;;;;;;-3.03;85.43;100347.31;5164666;22;22669;-78
2022/01/07 07:40:08;;;;;;;23.40;6.47;;;;;;;-2.99;85.43;100347.13;5116648;22;21117;-75
2022/01/07 07:42:34;;;;;;;23.97;7.30;;;;;;;-2.88;85.03;100351.06;5249664;22;20234;-75
2022/01/07 07:45:01;;;;;;;19.07;7.03;;;;;;;-2.90;85.48;100347.66;5142242;22;21718;-77
2022/01/07 07:47:28;;;;;;;23.47;7.17;;;;;;;-2.87;85.54;100347.56;5157412;22;20210;-76
2022/01/07 07:49:54;;;;;;;19.07;8.17;;;;;;;-2.90;86.23;100342.44;5123298;22;20240;-74
2022/01/07 07:52:21;;;;;;;21.53;7.80;;;;;;;-2.82;86.42;100340.41;5156003;22;22423;-78
2022/01/07 07:54:48;;;;;;;21.77;8.13;;;;;;;-2.72;86.41;100338.25;5133428;22;21385;-74
2022/01/07 07:57:14;;;;;;;22.77;7.93;;;;;;;-2.74;86.69;100335.72;5112373;22;20269;-75
2022/01/07 07:59:41;;;;;;;21.97;7.77;;;;;;;-2.72;86.85;100344.31;5119248;22;20210;-77
2022/01/07 08:02:09;;;;;;;21.77;7.90;;;;;;;-2.64;86.88;100336.22;5135404;22;20205;-75
2022/01/07 08:04:39;;;;;;;20.17;8.60;;;;;;;-2.54;86.65;100329.69;5135439;22;20212;-77
2022/01/07 08:07:06;;;;;;;17.87;7.27;;;;;;;-2.51;86.02;100333.91;5138925;22;20796;-77
2022/01/07 08:09:38;;;;;;;23.10;7.77;;;;;;;-2.45;85.96;100329.31;5126411;22;20213;-77
2022/01/07 08:12:18;;;;;;;26.57;9.07;;;;;;;-2.36;85.84;100333.28;5122818;22;20201;-75
2022/01/07 08:17:30;;;;;;;20.00;7.77;;;;;;;-2.29;86.34;100337.31;5130315;22;20201;-77
2022/01/07 08:19:57;;;;;;;20.60;7.67;;;;;;;-2.16;85.86;100335.84;5157549;22;21473;-74
2022/01/07 08:22:24;;;;;;;24.97;7.53;;;;;;;-2.22;86.02;100335.31;5135767;22;21629;-75
2022/01/07 08:24:51;;;;;;;26.23;8.50;;;;;;;-2.22;86.01;100338.75;5147830;22;20264;-76
2022/01/07 08:27:21;;;;;;;24.93;8.10;;;;;;;-2.18;86.24;100339.44;5136878;22;20286;-76
2022/01/07 08:30:10;;;;;;;22.67;8.27;;;;;;;-2.24;86.04;100350.16;5113901;22;22038;-76
2022/01/07 08:35:22;;;;;;;34.03;8.57;;;;;;;-2.49;87.63;100350.34;5133588;22;20214;-76
2022/01/07 08:37:49;;;;;;;25.20;8.33;;;;;;;-2.43;88.01;100343.13;5124276;23;20214;-75
2022/01/07 08:40:15;;;;;;;26.97;9.63;;;;;;;-2.36;86.95;100348.91;5124616;22;21721;-77
2022/01/07 08:42:42;;;;;;;33.20;9.17;;;;;;;-2.35;87.43;100355.81;5138431;22;20213;-74
2022/01/07 08:45:09;;;;;;;21.93;8.37;;;;;;;-2.27;86.96;100347.66;5093946;22;20699;-75
2022/01/07 08:47:36;;;;;;;27.67;8.30;;;;;;;-2.11;86.48;100343.47;5138830;22;20215;-77
2022/01/07 08:50:03;;;;;;;25.77;8.10;;;;;;;-1.64;84.15;100350.09;5129461;22;20209;-77
2022/01/07 08:52:30;;;;;;;21.33;7.97;;;;;;;-1.28;81.69;100364.09;5140406;22;22041;-76
2022/01/07 08:54:57;;;;;;;23.30;7.90;;;;;;;-1.21;80.35;100363.81;5133923;22;21204;-76
2022/01/07 08:57:24;;;;;;;21.60;7.90;;;;;;;-1.36;80.47;100362.75;5119019;22;20209;-74
2022/01/07 08:59:52;;;;;;;21.23;7.23;;;;;;;-1.41;80.80;100368.16;5114545;22;20221;-76
2022/01/07 09:02:19;;;;;;;24.73;7.20;;;;;;;-1.46;80.99;100366.69;5101311;22;20202;-76
2022/01/07 09:04:46;;;;;;;24.50;7.50;;;;;;;-1.52;81.17;100367.84;5158349;22;20276;-74
2022/01/07 09:07:13;;;;;;;29.13;7.77;;;;;;;-1.46;80.84;100366.69;5139983;22;20676;-79
2022/01/07 09:09:40;;;;;;;21.33;7.40;;;;;;;-1.57;81.15;100375.00;5161908;22;21007;-80
2022/01/07 09:12:07;;;;;;;25.03;7.70;;;;;;;-1.65;81.52;100377.13;5123700;22;20273;-77
2022/01/07 09:14:34;;;;;;;20.03;7.80;;;;;;;-1.68;80.88;100374.66;5142479;22;20476;-73
2022/01/07 09:17:01;;;;;;;24.20;8.90;;;;;;;-1.61;81.39;100373.47;5176212;22;20241;-75
2022/01/07 09:19:28;;;;;;;29.57;9.00;;;;;;;-1.77;82.52;100355.88;5121892;22;20290;-75
2022/01/07 09:21:56;;;;;;;19.70;7.20;;;;;;;-1.77;81.94;100358.50;5121220;23;20241;-78
2022/01/07 09:24:24;;;;;;;24.30;8.13;;;;;;;-1.68;82.05;100357.25;5081557;22;20209;-82
2022/01/07 09:26:50;;;;;;;20.97;7.53;;;;;;;-1.55;81.55;100350.53;5143767;22;20203;-76
2022/01/07 09:29:17;;;;;;;23.07;8.13;;;;;;;-1.42;80.57;100353.44;5145135;22;20901;-82
2022/01/07 09:31:44;;;;;;;26.10;8.60;;;;;;;-1.42;80.04;100358.66;5118506;22;20202;-80
2022/01/07 09:34:10;;;;;;;28.23;9.57;;;;;;;-1.21;79.34;100369.03;5165361;22;21224;-80
2022/01/07 09:36:53;;;;;;;26.57;8.53;;;;;;;-1.02;78.63;100369.84;5137068;22;20635;-78
2022/01/07 09:39:20;;;;;;;26.10;8.80;;;;;;;-0.76;81.34;100358.13;5144150;22;21163;-78
2022/01/07 09:41:47;;;;;;;26.03;8.33;;;;;;;-0.29;79.49;100356.69;5164644;22;20214;-80
2022/01/07 09:44:13;;;;;;;22.23;7.63;;;;;;;0.11;73.47;100346.78;5255011;22;20201;-79
2022/01/07 09:46:40;;;;;;;23.57;7.17;;;;;;;0.70;70.92;100347.97;5179204;22;20194;-79
2022/01/07 09:49:08;;;;;;;30.23;8.70;;;;;;;0.08;70.99;100344.34;5205429;22;20848;-86
2022/01/07 09:51:48;;;;;;;22.40;7.63;;;;;;;0.03;71.55;100346.38;5254955;22;20286;-84
2022/01/07 09:54:15;;;;;;;24.80;8.33;;;;;;;0.77;69.47;100354.59;5179375;22;20502;-77
2022/01/07 09:56:42;;;;;;;23.80;7.50;;;;;;;2.05;63.15;100350.69;5180678;22;22408;-81
2022/01/07 09:59:08;;;;;;;25.03;7.83;;;;;;;1.67;62.51;100345.94;5137704;22;21137;-80
2022/01/07 10:01:54;;;;;;;23.43;8.53;;;;;;;2.90;60.11;100354.19;5226513;22;22284;-75
2022/01/07 10:04:33;;;;;;;22.30;7.03;;;;;;;3.85;53.94;100356.78;5162573;22;20205;-80
2022/01/07 10:07:21;;;;;;;24.07;7.40;;;;;;;4.09;52.93;100344.53;5150213;22;21184;-85
2022/01/07 10:10:06;;;;;;;25.00;6.73;;;;;;;4.49;50.79;100347.03;5183557;22;20265;-78
2022/01/07 10:13:00;;;;;;;22.27;7.73;;;;;;;4.01;53.48;100331.09;5185691;22;20198;-77
2022/01/07 10:15:30;;;;;;;20.07;6.43;;;;;;;4.52;51.43;100335.44;5175044;22;20909;-78
2022/01/07 10:18:12;;;;;;;23.50;8.17;;;;;;;2.47;55.99;100335.88;5156333;22;20210;-82
2022/01/07 10:20:44;;;;;;;24.43;7.70;;;;;;;1.38;60.01;100324.06;5113064;22;21689;-79
2022/01/07 10:23:15;;;;;;;21.17;7.17;;;;;;;0.96;63.58;100319.47;5226049;22;21385;-77
2022/01/07 10:25:46;;;;;;;21.40;7.57;;;;;;;0.36;65.24;100318.41;5208145;22;20207;-77
2022/01/07 10:28:18;;;;;;;20.70;7.60;;;;;;;0.02;67.20;100308.88;5185276;22;22153;-80
2022/01/07 10:30:50;;;;;;;29.20;8.30;;;;;;;0.48;67.25;100318.66;5205070;22;20262;-82
2022/01/07 10:33:21;;;;;;;22.00;7.90;;;;;;;1.04;64.72;100319.91;5239460;23;21043;-82
2022/01/07 10:35:54;;;;;;;22.87;7.50;;;;;;;2.60;61.22;100325.44;5169233;22;20218;-76
2022/01/07 10:38:26;;;;;;;22.70;7.37;;;;;;;2.99;56.21;100338.75;5136641;22;21185;-79
2022/01/07 10:40:55;;;;;;;20.43;7.03;;;;;;;3.55;52.88;100332.41;5179196;22;20922;-83
2022/01/07 10:43:30;;;;;;;23.17;8.17;;;;;;;3.11;55.16;100327.44;5228581;22;20208;-82
2022/01/07 10:46:01;;;;;;;22.47;7.63;;;;;;;3.33;55.03;100329.53;5189088;22;20704;-82
2022/01/07 10:48:51;;;;;;;27.33;8.17;;;;;;;4.20;51.82;100330.66;5156019;22;20275;-79
2022/01/07 10:51:20;;;;;;;19.67;6.30;;;;;;;4.30;50.58;100325.56;5183404;23;20215;-80
2022/01/07 10:53:51;;;;;;;29.40;7.30;;;;;;;4.73;48.48;100333.94;5193810;23;20226;-82
2022/01/07 10:56:20;;;;;;;22.27;7.70;;;;;;;5.05;48.25;100338.66;5175283;23;20349;-77
2022/01/07 10:58:46;;;;;;;27.33;8.47;;;;;;;4.95;47.60;100341.13;5103074;22;20259;-81
2022/01/07 11:01:19;;;;;;;22.57;8.10;;;;;;;4.67;49.04;100338.78;5175477;22;20549;-77
2022/01/07 11:03:55;;;;;;;17.90;6.97;;;;;;;4.59;49.92;100327.00;5129951;22;22706;-79
2022/01/07 11:06:22;;;;;;;22.13;7.80;;;;;;;3.30;52.75;100327.06;5147469;22;20287;-82
2022/01/07 11:08:51;;;;;;;19.00;7.23;;;;;;;3.79;51.58;100335.19;5182981;22;20848;-79
2022/01/07 11:11:22;;;;;;;18.80;7.37;;;;;;;3.60;51.59;100332.09;5339841;22;25597;-80
2022/01/07 11:13:49;;;;;;;23.97;7.87;;;;;;;2.19;55.92;100323.59;5153829;22;20202;-75
2022/01/07 11:16:17;;;;;;;23.47;8.20;;;;;;;1.52;59.31;100309.28;5179545;23;25453;-87
2022/01/07 11:18:45;;;;;;;17.07;6.77;;;;;;;1.24;60.56;100305.66;5269874;22;20645;-81
2022/01/07 11:21:12;;;;;;;20.07;7.43;;;;;;;1.25;60.59;100302.94;5195946;22;20202;-82
2022/01/07 11:23:41;;;;;;;17.90;6.87;;;;;;;1.50;60.38;100301.53;5199692;22;20376;-79
2022/01/07 11:26:10;;;;;;;16.80;6.30;;;;;;;1.50;60.29;100303.28;5203229;22;20210;-82
2022/01/07 11:28:55;;;;;;;20.93;7.10;;;;;;;1.34;60.28;100303.38;5216437;22;20209;-77